Station: EBSP - 30/03/2020 14:51Z (il y a 29 minutes)
EBSP 301450Z AUTO 01008KT 330V050 9999 // SCT035/// 04/M04 Q1026
Vent du 010º - 8 kt (vent de direction variable de 330º à 050º)
Visibilité > 10 km
Ciel 50% couvert à 3500 pieds
Température: +04ºC - Point de rosée: -04ºC - QNH: 1026 hPa